Hlavní strana
METAR-TAF:

METAR-TAF

Letiště :

Ängelholm–Helsingborg

Helsingborg, Švédsko

zeměpisná šířka: 56-17-46N, zeměpisná délka: 012-50-50E, výška: 21 m

Aktuální stav počasí

Zpráva byla vytvořena před 31 minutami, v 19:50 UTC
Severoseverovýchodní vítr 8 kt
Teplota 4°C
Vlhkost vzduchu 81%
Tlak 1022 hPa
Viditelnost 10 km a více
Oblačno až skoro zataženo ve výšce 2100 ft

METAR: ESTA 111950Z 02008KT 9999 BKN021 04/01 Q1022

Čas: 21:21 (20:21 UTC)

Předpověď počasí

Zpráva byla vytvořena před 3 hodinami a 18 minutami, v 17:03 UTC
Předpověď platná od 11 v 18 UTC do 11 v 23 UTC
Severní vítr 8 kt
Viditelnost 10 km a více
Oblačno až skoro zataženo ve výšce 2000 ft

TAF: ESTA 111703Z 1118/1123 01008KT 9999 BKN020

Stav a předpovědi počasí z více než 4 000 letišť (zprávy METAR a TAF).

Červené a žluté tečky na mapě představují dostupné meteorologické stanice.

Když kurzor umístíte na tečku, zobrazí se název stanice.

Pak kliknutím zobrazíte stav a předpověď počasí.

Chcete-li změnit mapu, kliknutím na zelené tlačítko se znaménkem +mapu přiblížíte, kliknutím na zelené tlačítko se znaménkem – mapu oddálíte a kliknutím na zelené šipky přejdete na sousední mapy.


METAR-TAF: